Map

Track Data

SID SEASON NUMBER BASIN SUBBASIN NAME ISO_TIME NATURE LAT LON WMO_WIND WMO_PRES WMO_AGENCY TRACK_TYPE DIST2LAND LANDFALL IFLAG USA_AGENCY USA_ATCF_ID USA_LAT USA_LON USA_RECORD USA_STATUS USA_WIND USA_PRES USA_SSHS USA_R34_NE USA_R34_SE USA_R34_SW USA_R34_NW USA_R50_NE USA_R50_SE USA_R50_SW USA_R50_NW USA_R64_NE USA_R64_SE USA_R64_SW USA_R64_NW USA_POCI USA_ROCI USA_RMW USA_EYE TOKYO_LAT TOKYO_LON TOKYO_GRADE TOKYO_WIND TOKYO_PRES TOKYO_R50_DIR TOKYO_R50_LONG TOKYO_R50_SHORT TOKYO_R30_DIR TOKYO_R30_LONG TOKYO_R30_SHORT TOKYO_LAND CMA_LAT CMA_LON CMA_CAT CMA_WIND CMA_PRES HKO_LAT HKO_LON HKO_CAT HKO_WIND HKO_PRES NEWDELHI_LAT NEWDELHI_LON NEWDELHI_GRADE NEWDELHI_WIND NEWDELHI_PRES NEWDELHI_CI NEWDELHI_DP NEWDELHI_POCI REUNION_LAT REUNION_LON REUNION_TYPE REUNION_WIND REUNION_PRES REUNION_TNUM REUNION_CI REUNION_RMW REUNION_R34_NE REUNION_R34_SE REUNION_R34_SW REUNION_R34_NW REUNION_R50_NE REUNION_R50_SE REUNION_R50_SW REUNION_R50_NW REUNION_R64_NE REUNION_R64_SE REUNION_R64_SW REUNION_R64_NW BOM_LAT BOM_LON BOM_TYPE BOM_WIND BOM_PRES BOM_TNUM BOM_CI BOM_RMW BOM_R34_NE BOM_R34_SE BOM_R34_SW BOM_R34_NW BOM_R50_NE BOM_R50_SE BOM_R50_SW BOM_R50_NW BOM_R64_NE BOM_R64_SE BOM_R64_SW BOM_R64_NW BOM_ROCI BOM_POCI BOM_EYE BOM_POS_METHOD BOM_PRES_METHOD NADI_LAT NADI_LON NADI_CAT NADI_WIND NADI_PRES WELLINGTON_LAT WELLINGTON_LON WELLINGTON_WIND WELLINGTON_PRES DS824_LAT DS824_LON DS824_STAGE DS824_WIND DS824_PRES TD9636_LAT TD9636_LON TD9636_STAGE TD9636_WIND TD9636_PRES TD9635_LAT TD9635_LON TD9635_WIND TD9635_PRES TD9635_ROCI NEUMANN_LAT NEUMANN_LON NEUMANN_CLASS NEUMANN_WIND NEUMANN_PRES MLC_LAT MLC_LON MLC_CLASS MLC_WIND MLC_PRES USA_GUST BOM_GUST BOM_GUST_PER REUNION_GUST REUNION_GUST_PER USA_SEAHGT USA_SEARAD_NE USA_SEARAD_SE USA_SEARAD_SW USA_SEARAD_NW STORM_SPEED STORM_DIR
1868240N16327 1868 11 NA NA NOT_NAMED 1868-08-27 00:00:00 TS 16.0000 -33.5000 main 1722 1722 _____________O -1 16.0000 -33.5000 TD 30 15 283
1868240N16327 1868 11 NA NA NOT_NAMED 1868-08-27 03:00:00 TS 16.1630 -34.2497 main 1797 1797 _____________P -1 16.1630 -34.2497 TD 30 15 282
1868240N16327 1868 11 NA NA NOT_NAMED 1868-08-27 06:00:00 TS 16.3000 -35.0000 main 1883 1883 _____________O -1 16.3000 -35.0000 TD 30 15 279
1868240N16327 1868 11 NA NA NOT_NAMED 1868-08-27 09:00:00 TS 16.3997 -35.7502 main 1969 1969 _____________P -1 16.3997 -35.7502 TD 30 15 278
1868240N16327 1868 11 NA NA NOT_NAMED 1868-08-27 12:00:00 TS 16.5000 -36.5000 main 2044 2044 _____________O -1 16.5000 -36.5000 TD 30 15 280
1868240N16327 1868 11 NA NA NOT_NAMED 1868-08-27 15:00:00 TS 16.6497 -37.2499 main 2065 2016 _____________P -1 16.6497 -37.2499 TD 30 15 282
1868240N16327 1868 11 NA NA NOT_NAMED 1868-08-27 18:00:00 TS 16.8000 -38.0000 main 2016 1970 _____________O -1 16.8000 -38.0000 TD 30 15 279
1868240N16327 1868 11 NA NA NOT_NAMED 1868-08-27 21:00:00 TS 16.8849 -38.7654 main 1962 1918 _____________P -1 16.8849 -38.7654 TD 30 15 278
1868240N16327 1868 11 NA NA NOT_NAMED 1868-08-28 00:00:00 TS 17.0000 -39.5000 main 1918 1890 _____________O -1 17.0000 -39.5000 TD 30 14 284
1868240N16327 1868 11 NA NA NOT_NAMED 1868-08-28 03:00:00 TS 17.2272 -40.1724 main 1884 1867 _____________P -1 17.2272 -40.1724 TD 32 13 292
1868240N16327 1868 11 NA NA NOT_NAMED 1868-08-28 06:00:00 TS 17.5000 -40.8000 main 1869 1854 _____________O -1 17.5000 -40.8000 TS 35 13 295
1868240N16327 1868 11 NA NA NOT_NAMED 1868-08-28 09:00:00 TS 17.7493 -41.3629 main 1848 1838 _____________P -1 17.7493 -41.3629 TS 37 12 294
1868240N16327 1868 11 NA NA NOT_NAMED 1868-08-28 12:00:00 TS 18.0000 -42.0000 main 1838 1797 _____________O -1 18.0000 -42.0000 TS 40 16 289
1868240N16327 1868 11 NA NA NOT_NAMED 1868-08-28 15:00:00 TS 18.2511 -42.9372 main 1806 1769 _____________P -1 18.2511 -42.9372 TS 42 18 286
1868240N16327 1868 11 NA NA NOT_NAMED 1868-08-28 18:00:00 TS 18.5000 -43.8000 main 1769 1761 _____________O -1 18.5000 -43.8000 TS 45 13 293
1868240N16327 1868 11 NA NA NOT_NAMED 1868-08-28 21:00:00 TS 18.7489 -44.1881 main 1765 1765 _____________P -1 18.7489 -44.1881 TS 45 8 307
1868240N16327 1868 11 NA NA NOT_NAMED 1868-08-29 00:00:00 TS 19.0000 -44.5000 main 1777 1766 _____________O -1 19.0000 -44.5000 TS 45 10 300
1868240N16327 1868 11 NA NA NOT_NAMED 1868-08-29 03:00:00 TS 19.2502 -45.1125 main 1775 1756 _____________P -1 19.2502 -45.1125 TS 45 13 292
1868240N16327 1868 11 NA NA NOT_NAMED 1868-08-29 06:00:00 TS 19.5000 -45.8000 main 1761 1754 _____________O -1 19.5000 -45.8000 TS 45 13 292
1868240N16327 1868 11 NA NA NOT_NAMED 1868-08-29 09:00:00 TS 19.7496 -46.4003 main 1754 1754 _____________P -1 19.7496 -46.4003 TS 45 12 294
1868240N16327 1868 11 NA NA NOT_NAMED 1868-08-29 12:00:00 TS 20.0000 -47.0000 main 1760 1751 _____________O -1 20.0000 -47.0000 TS 45 13 293
1868240N16327 1868 11 NA NA NOT_NAMED 1868-08-29 15:00:00 TS 20.2499 -47.6501 main 1748 1745 _____________P -1 20.2499 -47.6501 TS 45 13 292
1868240N16327 1868 11 NA NA NOT_NAMED 1868-08-29 18:00:00 TS 20.5000 -48.3000 main 1745 1710 _____________O -1 20.5000 -48.3000 TS 45 12 291
1868240N16327 1868 11 NA NA NOT_NAMED 1868-08-29 21:00:00 TS 20.7045 -48.8860 main 1710 1684 _____________P -1 20.7045 -48.8860 TS 47 12 294
1868240N16327 1868 11 NA NA NOT_NAMED 1868-08-30 00:00:00 TS 21.0000 -49.5000 main 1684 1645 _____________O -1 21.0000 -49.5000 TS 50 15 303
1868240N16327 1868 11 NA NA NOT_NAMED 1868-08-30 03:00:00 TS 21.5050 -50.2273 main 1645 1577 _____________P -1 21.5050 -50.2273 TS 55 18 308
1868240N16327 1868 11 NA NA NOT_NAMED 1868-08-30 06:00:00 TS 22.1000 -51.0000 main 1577 1520 _____________O -1 22.1000 -51.0000 TS 60 19 310
1868240N16327 1868 11 NA NA NOT_NAMED 1868-08-30 09:00:00 TS 22.7101 -51.7868 main 1514 1462 _____________P -1 22.7101 -51.7868 TS 60 18 308
1868240N16327 1868 11 NA NA NOT_NAMED 1868-08-30 12:00:00 TS 23.2000 -52.5000 main 1462 1422 _____________O -1 23.2000 -52.5000 TS 60 14 302
1868240N16327 1868 11 NA NA NOT_NAMED 1868-08-30 15:00:00 TS 23.4169 -53.0385 main 1422 1378 _____________P -1 23.4169 -53.0385 TS 65 10 288
1868240N16327 1868 11 NA NA NOT_NAMED 1868-08-30 18:00:00 TS 23.5000 -53.5000 main 1378 1336 _____________O -1 23.5000 -53.5000 HU 70 9 282
1868240N16327 1868 11 NA NA NOT_NAMED 1868-08-30 21:00:00 TS 23.5998 -54.0002 main 1336 1294 _____________P -1 23.5998 -54.0002 HU 72 9 282
1868240N16327 1868 11 NA NA NOT_NAMED 1868-08-31 00:00:00 TS 23.7000 -54.5000 main 1294 1253 _____________O -1 23.7000 -54.5000 HU 75 9 285
1868240N16327 1868 11 NA NA NOT_NAMED 1868-08-31 03:00:00 TS 23.8498 -54.9999 main 1253 1219 _____________P -1 23.8498 -54.9999 HU 75 10 288
1868240N16327 1868 11 NA NA NOT_NAMED 1868-08-31 06:00:00 TS 24.0000 -55.5000 main 1219 1180 _____________O -1 24.0000 -55.5000 HU 75 10 285
1868240N16327 1868 11 NA NA NOT_NAMED 1868-08-31 09:00:00 TS 24.0999 -56.0077 main 1180 1143 _____________P -1 24.0999 -56.0077 HU 75 9 282
1868240N16327 1868 11 NA NA NOT_NAMED 1868-08-31 12:00:00 TS 24.2000 -56.5000 main 1143 1115 _____________O -1 24.2000 -56.5000 HU 75 9 286
1868240N16327 1868 11 NA NA NOT_NAMED 1868-08-31 15:00:00 TS 24.3498 -56.9575 main 1107 1088 _____________P -1 24.3498 -56.9575 HU 75 9 290
1868240N16327 1868 11 NA NA NOT_NAMED 1868-08-31 18:00:00 TS 24.5000 -57.4000 main 1088 1063 _____________O -1 24.5000 -57.4000 HU 75 9 287
1868240N16327 1868 11 NA NA NOT_NAMED 1868-08-31 21:00:00 TS 24.5999 -57.8502 main 1055 1031 _____________P -1 24.5999 -57.8502 HU 75 8 284
1868240N16327 1868 11 NA NA NOT_NAMED 1868-09-01 00:00:00 TS 24.7000 -58.3000 main 1031 1009 _____________O -1 24.7000 -58.3000 HU 75 9 287
1868240N16327 1868 11 NA NA NOT_NAMED 1868-09-01 03:00:00 TS 24.8499 -58.7574 main 1002 990 _____________P -1 24.8499 -58.7574 HU 75 9 290
1868240N16327 1868 11 NA NA NOT_NAMED 1868-09-01 06:00:00 TS 25.0000 -59.2000 main 990 971 _____________O -1 25.0000 -59.2000 HU 75 8 287
1868240N16327 1868 11 NA NA NOT_NAMED 1868-09-01 09:00:00 TS 25.0848 -59.6004 main 971 954 _____________P -1 25.0848 -59.6004 HU 75 8 285
1868240N16327 1868 11 NA NA NOT_NAMED 1868-09-01 12:00:00 TS 25.2000 -60.0000 main 954 945 _____________O -1 25.2000 -60.0000 HU 75 8 295
1868240N16327 1868 11 NA NA NOT_NAMED 1868-09-01 15:00:00 TS 25.4349 -60.4423 main 948 942 _____________P -1 25.4349 -60.4423 HU 75 10 302
1868240N16327 1868 11 NA NA NOT_NAMED 1868-09-01 18:00:00 TS 25.7000 -60.9000 main 948 943 _____________O -1 25.7000 -60.9000 HU 75 9 300
1868240N16327 1868 11 NA NA NOT_NAMED 1868-09-01 21:00:00 TS 25.8999 -61.3503 main 943 938 _____________P -1 25.8999 -61.3503 HU 75 9 296
1868240N16327 1868 11 NA NA NOT_NAMED 1868-09-02 00:00:00 TS 26.1000 -61.8000 main 945 941 _____________O -1 26.1000 -61.8000 HU 75 9 299
1868240N16327 1868 11 NA NA NOT_NAMED 1868-09-02 03:00:00 TS 26.3499 -62.2575 main 945 945 _____________P -1 26.3499 -62.2575 HU 75 10 302
1868240N16327 1868 11 NA NA NOT_NAMED 1868-09-02 06:00:00 TS 26.6000 -62.7000 main 963 960 _____________O -1 26.6000 -62.7000 HU 75 9 300
1868240N16327 1868 11 NA NA NOT_NAMED 1868-09-02 09:00:00 TS 26.7773 -63.1007 main 973 970 _____________P -1 26.7773 -63.1007 HU 77 8 299
1868240N16327 1868 11 NA NA NOT_NAMED 1868-09-02 12:00:00 TS 27.0000 -63.5000 main 985 985 _____________O -1 27.0000 -63.5000 HU 80 10 309
1868240N16327 1868 11 NA NA NOT_NAMED 1868-09-02 15:00:00 TS 27.3774 -63.9423 main 1020 1019 _____________P -1 27.3774 -63.9423 HU 80 11 315
1868240N16327 1868 11 NA NA NOT_NAMED 1868-09-02 18:00:00 TS 27.8000 -64.4000 main 1057 1057 _____________O -1 27.8000 -64.4000 HU 80 11 314
1868240N16327 1868 11 NA NA NOT_NAMED 1868-09-02 21:00:00 TS 28.1573 -64.8504 main 1090 1017 _____________P -1 28.1573 -64.8504 HU 82 19 280
1868240N16327 1868 11 NA NA NOT_NAMED 1868-09-03 00:00:00 TS 28.1333 -66.5333 70 hurdat_atl main 1012 976 O____________O hurdat_atl AL011868 27.4000 -69.0000 HU 70 1 28.5000 -65.3000 HU 85 22 274
1868240N16327 1868 11 NA NA NOT_NAMED 1868-09-03 03:00:00 TS 28.3249 -67.3739 main 973 969 P____________P AL011868 27.8000 -68.9976 HU 70 1 28.8498 -65.7503 HU 85 13 291
1868240N16327 1868 11 NA NA NOT_NAMED 1868-09-03 06:00:00 TS 28.6000 -67.8800 70 hurdat_atl main 973 967 O____________O hurdat_atl AL011868 28.2000 -69.0000 HU 70 1 29.2000 -66.2000 HU 85 10 308
1868240N16327 1868 11 NA NA NOT_NAMED 1868-09-03 09:00:00 TS 28.9192 -68.2341 main 986 969 P____________P AL011868 28.6000 -69.0074 HU 70 1 29.5576 -66.6873 HU 85 8 329
1868240N16327 1868 11 NA NA NOT_NAMED 1868-09-03 12:00:00 TS 29.3000 -68.3667 70 hurdat_atl main 969 947 O____________O hurdat_atl AL011868 29.0000 -69.0000 HU 70 1 29.9000 -67.1000 HU 85 8 348
1868240N16327 1868 11 NA NA NOT_NAMED 1868-09-03 15:00:00 TS 29.6641 -68.4152 main 940 919 P____________P AL011868 29.3925 -68.9575 HU 70 1 30.2072 -67.3306 HU 85 7 355
1868240N16327 1868 11 NA NA NOT_NAMED 1868-09-03 18:00:00 TS 30.0333 -68.4333 70 hurdat_atl main 919 884 O____________O hurdat_atl AL011868 29.8000 -68.9000 HU 70 1 30.5000 -67.5000 HU 85 8 355
1868240N16327 1868 11 NA NA NOT_NAMED 1868-09-03 21:00:00 TS 30.4158 -68.4882 main 884 855 P____________P AL011868 30.2275 -68.8573 HU 70 1 30.7925 -67.7501 HU 87 8 354
1868240N16327 1868 11 NA NA NOT_NAMED 1868-09-04 00:00:00 TS 30.8333 -68.5333 70 hurdat_atl main 855 818 O____________O hurdat_atl AL011868 30.7000 -68.8000 HU 70 1 31.1000 -68.0000 HU 90 9 357
1868240N16327 1868 11 NA NA NOT_NAMED 1868-09-04 03:00:00 TS 31.3092 -68.5360 main 818 784 P____________P AL011868 31.2425 -68.7002 HU 70 1 31.4424 -68.2077 HU 92 10 1
1868240N16327 1868 11 NA NA NOT_NAMED 1868-09-04 06:00:00 TS 31.8000 -68.5333 70 hurdat_atl main 784 750 O____________O hurdat_atl AL011868 31.8000 -68.6000 HU 70 1 31.8000 -68.4000 HU 95 9 0
1868240N16327 1868 11 NA NA NOT_NAMED 1868-09-04 09:00:00 TS 32.2550 -68.5665 main 744 720 P____________P AL011868 32.3075 -68.5497 HU 70 1 32.1500 -68.6002 HU 97 9 357
1868240N16327 1868 11 NA NA NOT_NAMED 1868-09-04 12:00:00 TS 32.7000 -68.6000 70 hurdat_atl main 720 699 O____________O hurdat_atl AL011868 32.8000 -68.5000 HU 70 1 32.5000 -68.8000 MH 100 9 357
1868240N16327 1868 11 NA NA NOT_NAMED 1868-09-04 15:00:00 TS 33.1350 -68.6174 main 699 675 P____________P AL011868 33.2925 -68.4222 HU 70 1 32.8200 -69.0077 MH 100 9 0
1868240N16327 1868 11 NA NA NOT_NAMED 1868-09-04 18:00:00 TS 33.6000 -68.6000 70 hurdat_atl main 675 655 O____________O hurdat_atl AL011868 33.8000 -68.3000 HU 70 1 33.2000 -69.2000 MH 100 941 10 3
1868240N16327 1868 11 NA NA NOT_NAMED 1868-09-04 21:00:00 TS 34.1375 -68.5440 main 664 648 P____________P AL011868 34.3425 -68.1151 HU 75 1 33.7275 -69.4018 MH 100 11 7
1868240N16327 1868 11 NA NA NOT_NAMED 1868-09-05 00:00:00 TS 34.7000 -68.4333 80 hurdat_atl main 654 648 O____________O hurdat_atl AL011868 34.9000 -67.9000 HU 80 1 34.3000 -69.5000 MH 100 11 11
1868240N16327 1868 11 NA NA NOT_NAMED 1868-09-05 03:00:00 TS 35.2382 -68.2822 main 653 652 P____________P AL011868 35.4574 -67.7145 HU 80 1 34.7999 -69.4176 MH 97 11 16
1868240N16327 1868 11 NA NA NOT_NAMED 1868-09-05 06:00:00 TS 35.7667 -68.0667 80 hurdat_atl main 665 630 O____________O hurdat_atl AL011868 36.0000 -67.5000 HU 80 1 35.3000 -69.2000 HU 95 11 20
1868240N16327 1868 11 NA NA NOT_NAMED 1868-09-05 09:00:00 TS 36.2906 -67.8087 main 630 586 P____________P AL011868 36.5074 -67.2295 HU 80 1 35.8571 -68.9669 HU 92 11 25
1868240N16327 1868 11 NA NA NOT_NAMED 1868-09-05 12:00:00 TS 36.8000 -67.4667 80 hurdat_atl main 586 555 O____________O hurdat_atl AL011868 37.0000 -66.9000 HU 80 1 36.4000 -68.6000 HU 90 11 31
1868240N16327 1868 11 NA NA NOT_NAMED 1868-09-05 15:00:00 TS 37.2519 -67.0918 main 548 531 P____________P AL011868 37.4848 -66.5365 HU 80 1 36.7863 -68.2024 HU 87 12 38
1868240N16327 1868 11 NA NA NOT_NAMED 1868-09-05 18:00:00 TS 37.7667 -66.5333 80 hurdat_atl main 526 511 O____________O hurdat_atl AL011868 38.0000 -66.1000 HU 80 1 37.3000 -67.4000 HU 85 16 43
1868240N16327 1868 11 NA NA NOT_NAMED 1868-09-05 21:00:00 TS 38.4464 -65.7034 main 517 480 P____________P AL011868 38.5618 -65.6155 HU 85 2 38.2154 -65.8792 HU 82 20 46
1868240N16327 1868 11 NA NA NOT_NAMED 1868-09-06 00:00:00 TS 39.2000 -64.6667 90 hurdat_atl main 480 424 O____________O hurdat_atl AL011868 39.2000 -65.0000 HU 90 2 39.2000 -64.0000 HU 80 22 48
1868240N16327 1868 11 NA NA NOT_NAMED 1868-09-06 03:00:00 TS 39.9251 -63.5615 main 424 396 P____________P AL011868 39.9192 -64.2382 HU 90 2 39.9370 -62.2080 HU 77 23 50
1868240N16327 1868 11 NA NA NOT_NAMED 1868-09-06 06:00:00 TS 40.6667 -62.3667 90 hurdat_atl main 392 382 O____________O hurdat_atl AL011868 40.7000 -63.3000 HU 90 2 40.6000 -60.5000 HU 75 24 50
1868240N16327 1868 11 NA NA NOT_NAMED 1868-09-06 09:00:00 TS 41.4433 -61.1716 main 386 347 P____________P AL011868 41.5209 -62.2465 HU 90 2 41.2880 -59.0218 HU 72 24 51
1868240N16327 1868 11 NA NA NOT_NAMED 1868-09-06 12:00:00 TS 42.2000 -59.8667 90 hurdat_atl main 347 328 O____________O hurdat_atl AL011868 42.3000 -61.0000 HU 90 2 42.0000 -57.6000 HU 70 25 55
1868240N16327 1868 11 NA NA NOT_NAMED 1868-09-06 15:00:00 TS 42.8607 -58.4037 main 333 333 P____________P AL011868 42.9434 -59.5868 HU 90 2 42.6954 -56.0376 HU 70 26 60
1868240N16327 1868 11 NA NA NOT_NAMED 1868-09-06 18:00:00 TS 43.5000 -56.8000 90 hurdat_atl main 364 301 O____________O hurdat_atl AL011868 43.5000 -58.0000 HU 90 2 43.5000 -54.4000 HU 70 27 62
1868240N16327 1868 11 NA NA NOT_NAMED 1868-09-06 21:00:00 TS 44.1541 -55.0915 main 291 188 P____________P AL011868 44.0140 -56.2842 HU 85 2 44.4343 -52.7060 HU 67 30 62
1868240N16327 1868 11 NA NA NOT_NAMED 1868-09-07 00:00:00 TS 44.9400 -53.0600 80 hurdat_atl main 189 157 O____________O hurdat_atl AL011868 44.5000 -54.5000 HU 80 1 45.6000 -50.9000 HU 65 35 59
1868240N16327 1868 11 NA NA NOT_NAMED 1868-09-07 03:00:00 TS 45.9820 -50.8146 main 190 190 P____________P AL011868 44.9993 -52.7441 HU 80 1 46.9647 -48.8852 HU 65 40 53
1868240N16327 1868 11 NA NA NOT_NAMED 1868-09-07 06:00:00 TS 47.3600 -48.4800 80 hurdat_atl main 307 307 O____________O hurdat_atl AL011868 45.5000 -51.0000 HU 80 1 48.6000 -46.8000 HU 65 61 42
1868240N16327 1868 11 NA NA NOT_NAMED 1868-09-07 09:00:00 TS 50.4873 -44.7712 main 629 629 _____________P AL011868 HU -1 50.4873 -44.7712 HU 62 63 36
1868240N16327 1868 11 NA NA NOT_NAMED 1868-09-07 12:00:00 ET 52.5000 -42.7000 main 831 _____________O -1 52.5000 -42.7000 EX 60 48 32

About IBTrACS Database

This database is a web-friendly format of International Best Track Archive for Climate Stewardship (IBTrACS), a global best track data archive curated by NOAA dating back to 1842.

Updated: 2021-10-25